createdAt,value
2023-05-09T00:00:00.761Z,4.82
2023-05-09T00:02:28.506Z,4.95
2023-05-09T00:04:56.690Z,4.40
2023-05-09T00:07:25.204Z,4.13
2023-05-09T00:09:52.386Z,4.60
2023-05-09T00:12:19.616Z,4.22
2023-05-09T00:14:48.156Z,4.70
2023-05-09T00:17:15.660Z,4.70
2023-05-09T00:19:43.491Z,4.85
2023-05-09T00:22:12.768Z,4.20
2023-05-09T00:24:41.388Z,4.40
2023-05-09T00:27:08.600Z,4.57
2023-05-09T00:29:35.827Z,5.07
2023-05-09T00:32:03.105Z,4.13
2023-05-09T00:34:30.432Z,4.22
2023-05-09T00:36:57.641Z,4.05
2023-05-09T00:39:24.964Z,4.65
2023-05-09T00:41:53.484Z,4.72
2023-05-09T00:44:20.680Z,4.63
2023-05-09T00:46:47.877Z,4.22
2023-05-09T00:49:15.083Z,4.15
2023-05-09T00:51:42.276Z,4.30
2023-05-09T00:54:09.479Z,4.20
2023-05-09T00:56:36.695Z,4.30
2023-05-09T00:59:06.282Z,4.03
2023-05-09T01:01:33.549Z,4.65
2023-05-09T01:04:00.868Z,4.40
2023-05-09T01:06:31.522Z,4.38
2023-05-09T01:09:00.474Z,4.43
2023-05-09T01:11:30.149Z,4.60
2023-05-09T01:13:58.658Z,4.30
2023-05-09T01:16:30.404Z,4.00
2023-05-09T01:18:59.730Z,4.45
2023-05-09T01:21:27.811Z,4.03
2023-05-09T01:24:00.421Z,4.20
2023-05-09T01:26:30.301Z,3.88
2023-05-09T01:29:02.442Z,4.35
2023-05-09T01:31:31.159Z,3.75
2023-05-09T01:33:59.066Z,4.03
2023-05-09T01:36:26.295Z,4.13
2023-05-09T01:38:53.530Z,3.78
2023-05-09T01:41:20.760Z,4.20
2023-05-09T01:43:48.162Z,3.72
2023-05-09T01:46:15.386Z,3.97
2023-05-09T01:48:44.189Z,3.70
2023-05-09T01:51:11.373Z,3.40
2023-05-09T01:53:38.576Z,3.72
2023-05-09T01:56:06.800Z,3.50
2023-05-09T01:58:34.467Z,3.47
2023-05-09T02:01:01.856Z,3.72
2023-05-09T02:03:29.116Z,3.38
2023-05-09T02:05:57.643Z,3.63
2023-05-09T02:08:24.856Z,3.55
2023-05-09T02:10:52.955Z,3.55
2023-05-09T02:13:20.188Z,3.50
2023-05-09T02:15:47.398Z,3.55
2023-05-09T02:18:14.681Z,3.53
2023-05-09T02:20:41.859Z,3.30
2023-05-09T02:23:10.361Z,3.63
2023-05-09T02:25:37.576Z,3.28
2023-05-09T02:28:04.786Z,3.40
2023-05-09T02:30:32.254Z,3.53
2023-05-09T02:33:00.839Z,3.20
2023-05-09T02:35:28.157Z,3.20
2023-05-09T02:37:55.351Z,3.50
2023-05-09T02:40:23.902Z,3.08
2023-05-09T02:42:51.070Z,3.67
2023-05-09T02:45:18.264Z,3.20
2023-05-09T02:47:45.457Z,3.80
2023-05-09T02:50:12.687Z,3.40
2023-05-09T02:52:39.867Z,3.20
2023-05-09T02:55:08.180Z,3.33
2023-05-09T02:57:36.776Z,3.40
2023-05-09T03:00:04.130Z,3.13
2023-05-09T03:02:31.636Z,3.40
2023-05-09T03:04:58.875Z,3.17
2023-05-09T03:07:26.172Z,3.13
2023-05-09T03:09:53.362Z,3.10
2023-05-09T03:12:20.586Z,3.60
2023-05-09T03:14:49.092Z,3.50
2023-05-09T03:17:17.253Z,3.25
2023-05-09T03:19:44.449Z,3.30
2023-05-09T03:22:11.635Z,3.10
2023-05-09T03:24:38.806Z,3.30
2023-05-09T03:27:06.002Z,3.47
2023-05-09T03:29:33.368Z,3.42
2023-05-09T03:32:01.875Z,3.42
2023-05-09T03:34:29.081Z,3.42
2023-05-09T03:36:56.297Z,3.17
2023-05-09T03:39:23.552Z,3.08
2023-05-09T03:41:50.742Z,3.13
2023-05-09T03:44:17.917Z,3.83
2023-05-09T03:46:45.172Z,3.10
2023-05-09T03:49:13.668Z,3.42
2023-05-09T03:51:42.168Z,3.70
2023-05-09T03:54:09.499Z,3.40
2023-05-09T03:56:36.843Z,3.65
2023-05-09T03:59:04.027Z,3.53
2023-05-09T04:01:31.210Z,3.10
2023-05-09T04:03:58.519Z,3.65
2023-05-09T04:06:27.071Z,3.55
2023-05-09T04:08:54.262Z,3.78
2023-05-09T04:11:21.551Z,3.22
2023-05-09T04:13:48.771Z,3.30
2023-05-09T04:16:16.023Z,3.20
2023-05-09T04:18:43.260Z,3.13
2023-05-09T04:21:10.507Z,3.28
2023-05-09T04:23:39.601Z,3.55
2023-05-09T04:26:07.463Z,3.00
2023-05-09T04:28:35.103Z,3.17
2023-05-09T04:31:02.935Z,3.40
2023-05-09T04:33:30.633Z,3.35
2023-05-09T04:35:58.438Z,3.28
2023-05-09T04:38:25.708Z,3.30
2023-05-09T04:40:54.205Z,3.10
2023-05-09T04:43:21.411Z,3.05
2023-05-09T04:45:48.633Z,3.03
2023-05-09T04:48:15.845Z,3.08
2023-05-09T04:50:43.239Z,3.13
2023-05-09T04:53:10.891Z,3.00
2023-05-09T04:55:38.092Z,3.00
2023-05-09T04:58:06.650Z,3.17
2023-05-09T05:00:33.889Z,3.33
2023-05-09T05:03:01.124Z,2.90
2023-05-09T05:05:28.591Z,3.22
2023-05-09T05:07:56.075Z,3.20
2023-05-09T05:10:23.310Z,3.10
2023-05-09T05:12:50.784Z,3.08
2023-05-09T05:15:19.580Z,3.10
2023-05-09T05:17:46.871Z,3.00
2023-05-09T05:20:14.132Z,3.13
2023-05-09T05:22:41.324Z,2.75
2023-05-09T05:25:09.109Z,2.78
2023-05-09T05:27:36.312Z,3.15
2023-05-09T05:30:03.647Z,3.17
2023-05-09T05:32:32.222Z,3.10
2023-05-09T05:34:59.478Z,2.80
2023-05-09T05:37:26.705Z,2.60
2023-05-09T05:39:54.525Z,2.72
2023-05-09T05:42:21.755Z,2.90
2023-05-09T05:44:48.950Z,2.85
2023-05-09T05:47:16.139Z,2.83
2023-05-09T05:49:45.017Z,4.28
2023-05-09T05:52:12.231Z,4.50
2023-05-09T05:54:39.403Z,4.38
2023-05-09T05:57:08.047Z,4.38
2023-05-09T05:59:35.286Z,4.10
2023-05-09T06:02:02.516Z,3.85
2023-05-09T06:04:29.731Z,3.70
2023-05-09T06:06:58.273Z,3.92
2023-05-09T06:09:25.455Z,3.95
2023-05-09T06:11:52.767Z,4.00
2023-05-09T06:14:19.966Z,3.55
2023-05-09T06:16:47.166Z,4.53
2023-05-09T06:19:14.364Z,4.03
2023-05-09T06:21:41.542Z,4.07
2023-05-09T06:24:16.965Z,4.03
2023-05-09T06:26:55.013Z,3.45
2023-05-09T06:29:22.211Z,3.72
2023-05-09T06:31:49.458Z,3.20
2023-05-09T06:34:16.663Z,3.95
2023-05-09T06:36:43.844Z,3.60
2023-05-09T06:39:12.347Z,3.50
2023-05-09T06:41:39.530Z,3.50
2023-05-09T06:44:06.800Z,3.53
2023-05-09T06:46:34.049Z,3.70
2023-05-09T06:49:02.526Z,3.67
2023-05-09T06:51:29.739Z,3.60
2023-05-09T06:53:56.926Z,3.80
2023-05-09T06:56:26.824Z,3.20
2023-05-09T06:58:54.149Z,3.90
2023-05-09T07:01:21.449Z,4.07
2023-05-09T07:03:48.691Z,4.65
2023-05-09T07:06:15.881Z,4.38
2023-05-09T07:08:43.074Z,4.30
2023-05-09T07:11:10.517Z,4.07
2023-05-09T07:13:39.093Z,4.40
2023-05-09T07:16:06.795Z,4.80
2023-05-09T07:18:34.072Z,4.57
2023-05-09T07:21:01.334Z,4.85
2023-05-09T07:23:28.551Z,5.60
2023-05-09T07:25:59.024Z,5.60
2023-05-09T07:28:26.354Z,5.80
2023-05-09T07:30:55.372Z,4.78
2023-05-09T07:33:22.569Z,4.82
2023-05-09T07:35:49.747Z,4.72
2023-05-09T07:38:16.968Z,4.65
2023-05-09T07:40:44.177Z,4.72
2023-05-09T07:43:11.383Z,4.43
2023-05-09T07:45:38.666Z,4.70
2023-05-09T07:48:07.642Z,4.82
2023-05-09T07:50:34.883Z,4.78
2023-05-09T07:53:02.125Z,5.07
2023-05-09T07:55:29.354Z,5.03
2023-05-09T07:57:56.559Z,4.65
2023-05-09T08:00:24.167Z,4.95
2023-05-09T08:02:51.616Z,5.35
2023-05-09T08:05:20.285Z,5.78
2023-05-09T08:07:47.494Z,6.13
2023-05-09T08:10:14.701Z,5.70
2023-05-09T08:12:41.929Z,6.03
2023-05-09T08:15:09.389Z,6.20
2023-05-09T08:17:36.606Z,6.75
2023-05-09T08:20:05.573Z,5.82
2023-05-09T08:22:34.081Z,7.75
2023-05-09T08:25:01.276Z,6.97
2023-05-09T08:27:28.477Z,8.18
2023-05-09T08:29:55.707Z,8.20
2023-05-09T08:32:22.962Z,6.95
2023-05-09T08:34:50.142Z,7.15
2023-05-09T08:37:17.346Z,7.45
2023-05-09T08:39:45.890Z,7.65
2023-05-09T08:42:15.754Z,6.82
2023-05-09T08:44:43.030Z,6.90
2023-05-09T08:47:10.517Z,7.88
2023-05-09T08:49:37.707Z,6.60
2023-05-09T08:52:05.171Z,7.45
2023-05-09T08:54:32.399Z,7.15
2023-05-09T08:57:01.117Z,7.60
2023-05-09T08:59:28.308Z,9.77
2023-05-09T09:01:55.581Z,10.63
2023-05-09T09:04:22.819Z,9.77
2023-05-09T09:06:50.874Z,11.57
2023-05-09T09:09:18.130Z,12.05
2023-05-09T09:11:45.322Z,10.40
2023-05-09T09:14:14.134Z,12.43
2023-05-09T09:16:41.927Z,11.15
2023-05-09T09:19:10.150Z,11.48
2023-05-09T09:21:37.358Z,10.77
2023-05-09T09:24:04.799Z,11.20
2023-05-09T09:26:32.049Z,12.27
2023-05-09T09:28:59.224Z,11.98
2023-05-09T09:31:28.390Z,13.07
2023-05-09T09:33:59.799Z,11.32
2023-05-09T09:36:27.311Z,10.30
2023-05-09T09:38:57.794Z,10.02
2023-05-09T09:41:30.610Z,9.40
2023-05-09T09:43:58.851Z,9.32
2023-05-09T09:46:27.543Z,9.52
2023-05-09T09:48:57.546Z,9.43
2023-05-09T09:51:27.412Z,8.10
2023-05-09T09:53:54.601Z,8.20
2023-05-09T09:56:22.140Z,19.98
2023-05-09T09:58:49.321Z,14.02
2023-05-09T10:01:16.923Z,15.20
2023-05-09T10:03:45.872Z,13.32
2023-05-09T10:06:13.191Z,17.05
2023-05-09T10:08:40.403Z,19.25
2023-05-09T10:11:07.796Z,15.65
2023-05-09T10:13:35.715Z,16.25
2023-05-09T10:16:03.110Z,14.80
2023-05-09T10:18:30.702Z,12.90
2023-05-09T10:21:01.816Z,11.80
2023-05-09T10:23:29.040Z,11.15
2023-05-09T10:25:58.388Z,10.50
2023-05-09T10:28:28.538Z,10.70
2023-05-09T10:30:57.554Z,10.98
2023-05-09T10:33:25.452Z,8.90
2023-05-09T10:35:52.652Z,8.48
2023-05-09T10:38:21.191Z,9.05
2023-05-09T10:40:48.549Z,9.32
2023-05-09T10:43:15.884Z,8.93
2023-05-09T10:45:43.091Z,8.00
2023-05-09T10:48:10.306Z,6.90
2023-05-09T10:50:37.582Z,7.97
2023-05-09T10:53:08.212Z,7.30
2023-05-09T10:55:40.718Z,6.90
2023-05-09T10:58:25.231Z,6.70
2023-05-09T11:00:53.485Z,7.38
2023-05-09T11:03:21.962Z,6.88
2023-05-09T11:05:50.334Z,6.68
2023-05-09T11:08:21.430Z,5.78
2023-05-09T11:10:49.984Z,6.13
2023-05-09T11:13:20.212Z,6.15
2023-05-09T11:16:06.818Z,6.10
2023-05-09T11:18:34.121Z,5.85
2023-05-09T11:21:07.804Z,6.15
2023-05-09T11:23:35.002Z,5.97
2023-05-09T11:26:06.699Z,5.85
2023-05-09T11:28:34.187Z,5.47
2023-05-09T11:31:11.084Z,5.72
2023-05-09T11:33:38.379Z,5.28
2023-05-09T11:36:18.903Z,5.50
2023-05-09T11:38:46.291Z,5.68
2023-05-09T11:41:14.865Z,5.53
2023-05-09T11:43:42.952Z,5.45
2023-05-09T11:46:10.284Z,5.57
2023-05-09T11:50:58.509Z,5.00
2023-05-09T11:53:25.706Z,5.47
2023-05-09T11:55:53.399Z,5.20
2023-05-09T11:58:21.899Z,5.47
2023-05-09T12:00:49.096Z,5.63
2023-05-09T12:03:16.530Z,4.70
2023-05-09T12:05:44.657Z,5.00
2023-05-09T12:08:12.151Z,5.25
2023-05-09T12:10:39.663Z,5.32
2023-05-09T12:13:06.889Z,5.18
2023-05-09T12:15:38.679Z,5.78
2023-05-09T12:18:06.475Z,5.20
2023-05-09T12:20:43.615Z,4.90
2023-05-09T12:23:11.649Z,5.10
2023-05-09T12:25:38.868Z,5.18
2023-05-09T12:28:06.226Z,5.20
2023-05-09T12:30:33.398Z,5.50
2023-05-09T12:33:01.925Z,5.28
2023-05-09T12:35:29.155Z,5.18
2023-05-09T12:37:56.966Z,5.47
2023-05-09T12:40:24.252Z,5.78
2023-05-09T12:42:53.630Z,5.60
2023-05-09T12:45:20.832Z,5.20
2023-05-09T12:47:51.893Z,5.50
2023-05-09T12:50:20.454Z,5.45
2023-05-09T12:53:02.048Z,5.20
2023-05-09T12:55:31.525Z,4.50
2023-05-09T12:57:59.285Z,5.13
2023-05-09T13:00:26.930Z,5.35
2023-05-09T13:02:54.270Z,5.80
2023-05-09T13:05:23.156Z,5.15
2023-05-09T13:07:50.908Z,4.85
2023-05-09T13:10:19.269Z,5.20
2023-05-09T13:12:48.188Z,4.97
2023-05-09T13:15:15.850Z,4.78
2023-05-09T13:17:43.245Z,4.95
2023-05-09T13:20:10.512Z,5.22
2023-05-09T13:22:39.044Z,4.68
2023-05-09T13:25:06.972Z,4.75
2023-05-09T13:27:34.298Z,4.72
2023-05-09T13:30:01.490Z,4.65
2023-05-09T13:32:28.841Z,4.90
2023-05-09T13:34:56.086Z,4.93
2023-05-09T13:37:23.318Z,4.40
2023-05-09T13:39:51.818Z,4.72
2023-05-09T13:42:19.300Z,4.30
2023-05-09T13:44:46.545Z,4.75
2023-05-09T13:47:13.750Z,4.97
2023-05-09T13:49:40.928Z,4.80
2023-05-09T13:52:08.910Z,4.78
2023-05-09T13:54:36.172Z,4.50
2023-05-09T13:57:04.884Z,4.80
2023-05-09T13:59:32.216Z,4.65
2023-05-09T14:01:59.987Z,5.05
2023-05-09T14:04:27.525Z,4.78
2023-05-09T14:06:54.830Z,4.95
2023-05-09T14:09:22.501Z,5.00
2023-05-09T14:11:51.497Z,4.38
2023-05-09T14:14:20.054Z,5.03
2023-05-09T14:16:47.456Z,4.97
2023-05-09T14:19:15.121Z,4.88
2023-05-09T14:21:42.876Z,4.97
2023-05-09T14:24:10.319Z,4.60
2023-05-09T14:26:37.550Z,4.53
2023-05-09T14:29:04.937Z,4.60
2023-05-09T14:31:33.592Z,4.55
2023-05-09T14:34:00.999Z,4.28
2023-05-09T14:36:28.581Z,4.63
2023-05-09T14:38:55.816Z,4.35
2023-05-09T14:41:23.084Z,4.53
2023-05-09T14:43:50.325Z,4.85
2023-05-09T14:46:17.544Z,4.30
2023-05-09T14:48:46.112Z,4.22
2023-05-09T14:51:14.132Z,4.35
2023-05-09T14:53:41.880Z,4.10
2023-05-09T14:56:09.405Z,4.32
2023-05-09T14:58:36.616Z,4.20
2023-05-09T15:01:04.010Z,4.30
2023-05-09T15:03:31.369Z,4.50
2023-05-09T15:06:00.213Z,3.95
2023-05-09T15:08:27.610Z,4.40
2023-05-09T15:10:54.829Z,4.22
2023-05-09T15:13:22.196Z,4.03
2023-05-09T15:15:49.494Z,4.30
2023-05-09T15:18:18.302Z,4.20
2023-05-09T15:20:45.537Z,4.65
2023-05-09T15:23:14.197Z,4.30
2023-05-09T15:25:41.453Z,3.95
2023-05-09T15:28:08.647Z,4.30
2023-05-09T15:30:38.736Z,4.10
2023-05-09T15:33:06.251Z,3.92
2023-05-09T15:35:33.526Z,3.78
2023-05-09T15:38:00.741Z,4.07
2023-05-09T15:40:29.545Z,4.00
2023-05-09T15:42:56.823Z,3.70
2023-05-09T15:45:24.034Z,3.80
2023-05-09T15:47:51.247Z,3.70
2023-05-09T15:50:18.856Z,3.50
2023-05-09T15:52:46.181Z,4.05
2023-05-09T15:55:13.759Z,3.75
2023-05-09T15:57:42.304Z,4.10
2023-05-09T16:00:10.049Z,3.67
2023-05-09T16:02:37.377Z,3.88
2023-05-09T16:05:04.829Z,4.13
2023-05-09T16:07:33.361Z,3.78
2023-05-09T16:10:03.040Z,3.90
2023-05-09T16:12:32.551Z,4.22
2023-05-09T16:15:01.590Z,3.47
2023-05-09T16:17:28.906Z,4.32
2023-05-09T16:19:56.264Z,4.38
2023-05-09T16:22:23.514Z,3.88
2023-05-09T16:24:50.708Z,3.80
2023-05-09T16:27:17.942Z,3.75
2023-05-09T16:29:45.166Z,4.30
2023-05-09T16:32:13.731Z,3.97
2023-05-09T16:34:41.054Z,3.60
2023-05-09T16:37:08.276Z,4.00
2023-05-09T16:39:35.505Z,4.00
2023-05-09T16:42:03.831Z,3.92
2023-05-09T16:44:31.034Z,4.03
2023-05-09T16:46:58.205Z,3.75
2023-05-09T16:49:26.734Z,3.90
2023-05-09T16:51:53.947Z,3.90
2023-05-09T16:54:21.297Z,3.97
2023-05-09T16:56:48.479Z,3.85
2023-05-09T16:59:17.220Z,4.10
2023-05-09T17:01:44.440Z,4.10
2023-05-09T17:04:11.711Z,4.00
2023-05-09T17:06:40.367Z,4.43
2023-05-09T17:09:07.930Z,3.83
2023-05-09T17:11:35.161Z,3.95
2023-05-09T17:14:02.683Z,3.92
2023-05-09T17:16:29.958Z,3.90
2023-05-09T17:18:57.304Z,4.05
2023-05-09T17:21:24.506Z,4.10
2023-05-09T17:23:53.953Z,3.80
2023-05-09T17:26:21.310Z,3.90
2023-05-09T17:28:49.528Z,4.18
2023-05-09T17:31:16.758Z,3.90
2023-05-09T17:33:44.078Z,4.10
2023-05-09T17:36:11.350Z,4.43
2023-05-09T17:38:38.544Z,3.90
2023-05-09T17:41:07.078Z,3.78
2023-05-09T17:43:34.274Z,3.53
2023-05-09T17:46:01.643Z,4.18
2023-05-09T17:48:29.184Z,4.07
2023-05-09T17:50:56.438Z,3.65
2023-05-09T17:53:24.012Z,3.85
2023-05-09T17:55:51.241Z,4.05
2023-05-09T17:58:20.758Z,4.18
2023-05-09T18:00:48.039Z,3.60
2023-05-09T18:03:15.397Z,4.20
2023-05-09T18:05:42.825Z,4.07
2023-05-09T18:08:10.085Z,4.00
2023-05-09T18:10:37.333Z,3.88
2023-05-09T18:13:04.627Z,4.00
2023-05-09T18:15:37.875Z,4.28
2023-05-09T18:18:06.423Z,4.20
2023-05-09T18:20:33.651Z,4.50
2023-05-09T18:23:00.904Z,3.88
2023-05-09T18:25:28.138Z,4.18
2023-05-09T18:27:55.354Z,4.30
2023-05-09T18:30:22.636Z,3.95
2023-05-09T18:32:51.178Z,4.10
2023-05-09T18:35:18.361Z,3.78
2023-05-09T18:37:45.599Z,3.50
2023-05-09T18:40:15.545Z,4.22
2023-05-09T18:42:43.231Z,3.92
2023-05-09T18:45:10.734Z,4.03
2023-05-09T18:47:38.065Z,3.85
2023-05-09T18:50:07.834Z,3.53
2023-05-09T18:52:35.088Z,3.90
2023-05-09T18:55:02.335Z,3.70
2023-05-09T18:57:29.562Z,3.95
2023-05-09T18:59:56.820Z,3.97
2023-05-09T19:02:24.306Z,3.90
2023-05-09T19:04:51.633Z,3.88
2023-05-09T19:07:20.199Z,3.80
2023-05-09T19:09:47.599Z,3.97
2023-05-09T19:12:16.296Z,3.75
2023-05-09T19:14:43.563Z,3.40
2023-05-09T19:17:10.873Z,3.70
2023-05-09T19:19:38.195Z,4.10
2023-05-09T19:22:05.424Z,3.55
2023-05-09T19:24:33.991Z,3.47
2023-05-09T19:27:01.430Z,3.72
2023-05-09T19:29:28.769Z,3.60
2023-05-09T19:31:56.279Z,3.42
2023-05-09T19:34:23.871Z,3.25
2023-05-09T19:36:51.081Z,3.35
2023-05-09T19:39:18.299Z,3.25
2023-05-09T19:41:46.926Z,3.40
2023-05-09T19:44:14.215Z,3.20
2023-05-09T19:46:43.011Z,3.33
2023-05-09T19:49:10.408Z,3.30
2023-05-09T19:51:37.645Z,3.35
2023-05-09T19:54:05.219Z,3.00
2023-05-09T19:56:32.443Z,3.00
2023-05-09T19:59:00.979Z,3.30
2023-05-09T20:01:28.246Z,3.40
2023-05-09T20:03:56.634Z,3.50
2023-05-09T20:06:25.245Z,3.47
2023-05-09T20:08:52.485Z,3.30
2023-05-09T20:11:20.873Z,3.10
2023-05-09T20:13:48.070Z,2.90
2023-05-09T20:16:16.709Z,3.22
2023-05-09T20:18:44.158Z,3.08
2023-05-09T20:21:11.396Z,2.65
2023-05-09T20:23:39.564Z,3.10
2023-05-09T20:26:06.852Z,3.58
2023-05-09T20:28:34.090Z,3.10
2023-05-09T20:31:01.363Z,2.65
2023-05-09T20:33:29.918Z,2.90
2023-05-09T20:35:57.459Z,3.00
2023-05-09T20:38:24.761Z,2.70
2023-05-09T20:40:51.989Z,3.15
2023-05-09T20:43:20.392Z,3.30
2023-05-09T20:45:47.932Z,3.05
2023-05-09T20:48:15.159Z,2.70
2023-05-09T20:50:43.742Z,2.83
2023-05-09T20:53:10.952Z,3.22
2023-05-09T20:55:38.180Z,3.00
2023-05-09T20:58:05.440Z,2.80
2023-05-09T21:00:32.737Z,3.20
2023-05-09T21:03:00.357Z,2.70
2023-05-09T21:05:27.702Z,2.70
2023-05-09T21:07:56.307Z,3.22
2023-05-09T21:10:23.556Z,3.13
2023-05-09T21:12:50.867Z,3.03
2023-05-09T21:15:18.141Z,2.75
2023-05-09T21:17:45.480Z,2.78
2023-05-09T21:20:13.323Z,2.95
2023-05-09T21:22:40.722Z,3.33
2023-05-09T21:25:09.847Z,3.10
2023-05-09T21:27:37.045Z,2.67
2023-05-09T21:30:04.555Z,3.22
2023-05-09T21:32:31.780Z,2.90
2023-05-09T21:34:59.008Z,2.80
2023-05-09T21:37:26.287Z,2.75
2023-05-09T21:39:53.510Z,3.13
2023-05-09T21:42:22.868Z,2.80
2023-05-09T21:44:50.091Z,2.83
2023-05-09T21:47:17.403Z,2.92
2023-05-09T21:49:44.667Z,3.10
2023-05-09T21:52:11.895Z,3.10
2023-05-09T21:54:39.166Z,2.70
2023-05-09T21:57:06.380Z,2.83
2023-05-09T21:59:34.900Z,2.72
2023-05-09T22:02:02.128Z,2.72
2023-05-09T22:04:29.342Z,2.85
2023-05-09T22:06:56.552Z,2.78
2023-05-09T22:09:23.771Z,3.20
2023-05-09T22:11:51.732Z,3.10
2023-05-09T22:14:18.963Z,2.78
2023-05-09T22:16:47.628Z,2.92
2023-05-09T22:19:15.005Z,2.88
2023-05-09T22:21:42.234Z,3.35
2023-05-09T22:24:09.443Z,2.80
2023-05-09T22:26:36.656Z,2.72
2023-05-09T22:29:03.870Z,3.20
2023-05-09T22:31:31.110Z,3.38
2023-05-09T22:33:59.655Z,3.35
2023-05-09T22:36:26.865Z,3.20
2023-05-09T22:38:54.068Z,2.90
2023-05-09T22:41:22.079Z,3.25
2023-05-09T22:43:49.341Z,2.83
2023-05-09T22:46:16.545Z,3.50
2023-05-09T22:48:43.770Z,3.30
2023-05-09T22:51:12.284Z,3.10
2023-05-09T22:53:40.005Z,3.20
2023-05-09T22:56:09.249Z,4.28
2023-05-09T22:58:36.510Z,3.40
2023-05-09T23:01:03.830Z,3.60
2023-05-09T23:03:31.823Z,3.25
2023-05-09T23:05:59.008Z,3.50
2023-05-09T23:08:27.516Z,3.83
2023-05-09T23:10:54.702Z,3.80
2023-05-09T23:13:21.938Z,3.45
2023-05-09T23:15:49.187Z,3.28
2023-05-09T23:18:16.435Z,3.60
2023-05-09T23:20:43.624Z,3.42
2023-05-09T23:23:10.867Z,3.40
2023-05-09T23:25:39.935Z,3.40
2023-05-09T23:28:07.189Z,3.40
2023-05-09T23:30:34.411Z,3.40
2023-05-09T23:33:01.819Z,3.35
2023-05-09T23:35:29.063Z,3.47
2023-05-09T23:37:56.273Z,3.17
2023-05-09T23:40:23.663Z,3.42
2023-05-09T23:42:52.181Z,3.50
2023-05-09T23:45:19.392Z,3.58
2023-05-09T23:47:46.660Z,3.20
2023-05-09T23:50:14.107Z,3.20
2023-05-09T23:52:42.245Z,3.85
2023-05-09T23:55:10.192Z,3.28
2023-05-09T23:57:37.425Z,3.85
